CheckWX is a tool to help pilots better visualize weather data.  It is not intended as a substitute for an official pre-flight weather briefing.

08:09:30 UTC

PLCH METAR
Cassidy International Airport
Banana, Kiribati
Current

1 hour ago

PLCH 210700Z 10005KT 9999 SCT020 28/23 Q1009
Observed
Nov-21 @ 07:00 UTC
Wind
  • 100° at 5 KTS
Visibility
10,000+ meters
Flight Rules
VFR
Cloud Levels
  • Scattered at 2,000' AGL
Temperature
28°C / 82°F
Dewpoint
23°C / 73°F
Heat Index
31°C / 87°F
Humidity
74%
Altimeter
29.79" Hg
Pressure
1008.92 hPa
Previous

2 hours ago

PLCH 210600Z 10008KT 9999 SCT020 28/23 Q1008
Observed
Nov-21 @ 06:00 UTC
Wind
  • 100° at 8 KTS
Visibility
10,000+ meters
Flight Rules
VFR
Cloud Levels
  • Scattered at 2,000' AGL
Temperature
28°C / 82°F
Dewpoint
23°C / 73°F
Heat Index
31°C / 87°F
Humidity
74%
Altimeter
29.76" Hg
Pressure
1007.92 hPa
Previous

3 hours ago

PLCH 210500Z 09005KT 9999 SCT020 28/23 Q1008
Observed
Nov-21 @ 05:00 UTC
Wind
  • 090° at 5 KTS
Visibility
10,000+ meters
Flight Rules
VFR
Cloud Levels
  • Scattered at 2,000' AGL
Temperature
28°C / 82°F
Dewpoint
23°C / 73°F
Heat Index
31°C / 87°F
Humidity
74%
Altimeter
29.76" Hg
Pressure
1007.92 hPa